Time;durP1;ratioP1;P1;durP2;ratioP2;P2;SDS_P1;SDS_P2;PMS_P1;PMS_P2;Temp;Humidity;BMP_temperature;BMP_pressure;BME280_temperature;BME280_humidity;BME280_pressure;Samples;Min_cycle;Max_cycle;Signal;HPM_P1;HPM_P2
2024/01/02 00:00:28;;;;;;;10.33;9.57;;;7.10;99.90;;;;;;4897907;29;20231;-77
2024/01/02 00:02:54;;;;;;;9.87;9.07;;;7.10;99.90;;;;;;4898205;29;20280;-76
2024/01/02 00:05:21;;;;;;;10.00;9.20;;;7.00;99.90;;;;;;4898182;29;20269;-77
2024/01/02 00:07:48;;;;;;;9.67;8.97;;;7.00;99.90;;;;;;4897822;29;20260;-77
2024/01/02 00:10:15;;;;;;;10.10;9.13;;;6.90;99.90;;;;;;4900131;29;20211;-77
2024/01/02 00:12:42;;;;;;;9.43;8.83;;;6.90;99.90;;;;;;4901536;29;20315;-77
2024/01/02 00:15:10;;;;;;;10.07;9.00;;;6.80;99.90;;;;;;4902230;29;20677;-77
2024/01/02 00:17:37;;;;;;;9.43;8.83;;;6.80;99.90;;;;;;4901672;29;20199;-77
2024/01/02 00:20:06;;;;;;;9.70;9.10;;;6.80;99.90;;;;;;4904807;29;20223;-76
2024/01/02 00:22:33;;;;;;;9.47;8.77;;;6.80;99.90;;;;;;4903822;29;20221;-77
2024/01/02 00:25:00;;;;;;;9.27;8.63;;;6.80;99.90;;;;;;4901939;29;20240;-77
2024/01/02 00:27:26;;;;;;;9.30;8.70;;;6.80;99.90;;;;;;4899738;29;20208;-77
2024/01/02 00:29:53;;;;;;;9.40;8.90;;;6.80;99.90;;;;;;4898457;29;20208;-76
2024/01/02 00:32:21;;;;;;;9.47;8.80;;;6.80;99.90;;;;;;4900997;29;20295;-77
2024/01/02 00:34:48;;;;;;;9.70;9.00;;;6.80;99.90;;;;;;4899335;29;20200;-77
2024/01/02 00:37:15;;;;;;;9.80;9.10;;;6.80;99.90;;;;;;4900066;29;20257;-77
2024/01/02 00:39:42;;;;;;;9.30;8.80;;;6.80;99.90;;;;;;4900543;29;20211;-77
2024/01/02 00:42:09;;;;;;;9.30;8.70;;;6.70;99.90;;;;;;4900102;29;20220;-77
2024/01/02 00:44:36;;;;;;;9.50;8.90;;;6.80;99.90;;;;;;4900002;29;20235;-77
2024/01/02 00:47:03;;;;;;;9.40;8.80;;;6.80;99.90;;;;;;4900193;29;20625;-76
2024/01/02 00:49:31;;;;;;;9.17;8.63;;;6.80;99.90;;;;;;4906469;29;20223;-76
2024/01/02 00:51:57;;;;;;;9.60;9.00;;;6.90;99.90;;;;;;4900581;29;20225;-77
2024/01/02 00:54:24;;;;;;;9.00;8.40;;;7.00;99.90;;;;;;4899940;29;20200;-77
2024/01/02 00:56:51;;;;;;;9.60;8.90;;;7.00;99.90;;;;;;4899723;29;20258;-76
2024/01/02 00:59:18;;;;;;;9.20;8.70;;;7.00;99.90;;;;;;4899461;29;20613;-77
2024/01/02 01:01:45;;;;;;;9.10;8.60;;;7.00;99.90;;;;;;4903305;29;20687;-77
2024/01/02 01:04:12;;;;;;;9.00;8.50;;;7.10;99.90;;;;;;4900106;29;20200;-77
2024/01/02 01:06:40;;;;;;;9.10;8.60;;;7.10;99.90;;;;;;4900801;29;20668;-78
2024/01/02 01:09:07;;;;;;;9.67;9.03;;;7.10;99.90;;;;;;4899863;29;20627;-77
2024/01/02 01:11:34;;;;;;;9.30;8.80;;;7.10;99.90;;;;;;4899291;29;20225;-77
2024/01/02 01:14:01;;;;;;;9.30;8.80;;;7.10;99.90;;;;;;4900119;29;20271;-77
2024/01/02 01:16:28;;;;;;;9.27;8.70;;;7.20;99.90;;;;;;4899417;29;20211;-77
2024/01/02 01:18:55;;;;;;;9.10;8.60;;;7.20;99.90;;;;;;4899436;29;20228;-77
2024/01/02 01:21:21;;;;;;;9.10;8.60;;;7.20;99.90;;;;;;4898781;29;20205;-77
2024/01/02 01:23:50;;;;;;;9.20;8.70;;;7.20;99.90;;;;;;4899248;29;20192;-77
2024/01/02 01:26:17;;;;;;;9.60;9.10;;;7.20;99.90;;;;;;4899708;29;20291;-77
2024/01/02 01:28:44;;;;;;;9.57;9.00;;;7.20;99.90;;;;;;4899719;29;20204;-76
2024/01/02 01:31:11;;;;;;;9.50;9.00;;;7.20;99.90;;;;;;4896659;29;20235;-77
2024/01/02 01:33:37;;;;;;;9.43;8.93;;;7.20;99.90;;;;;;4899690;29;20708;-76
2024/01/02 01:36:05;;;;;;;9.27;8.77;;;7.20;99.90;;;;;;4899160;29;20615;-77
2024/01/02 01:38:32;;;;;;;9.77;9.13;;;7.30;99.90;;;;;;4900850;29;20200;-76
2024/01/02 01:41:00;;;;;;;9.73;9.13;;;7.30;99.90;;;;;;4899180;29;20260;-76
2024/01/02 01:43:27;;;;;;;9.50;9.00;;;7.30;99.90;;;;;;4899943;29;20212;-77
2024/01/02 01:45:54;;;;;;;9.03;8.57;;;7.30;99.90;;;;;;4900152;29;20244;-76
2024/01/02 01:48:22;;;;;;;8.90;8.40;;;7.30;99.90;;;;;;4899058;29;20212;-77
2024/01/02 01:50:49;;;;;;;9.10;8.60;;;7.30;99.90;;;;;;4898898;29;20239;-76
2024/01/02 01:53:17;;;;;;;9.10;8.60;;;7.30;99.90;;;;;;4898439;29;20258;-78
2024/01/02 01:55:43;;;;;;;9.10;8.60;;;7.30;99.90;;;;;;4898989;29;20346;-76
2024/01/02 01:58:12;;;;;;;9.43;8.93;;;7.30;99.90;;;;;;4898696;29;20197;-77
2024/01/02 02:00:39;;;;;;;9.63;9.07;;;7.30;99.90;;;;;;4899167;29;20208;-77
2024/01/02 02:03:06;;;;;;;9.40;8.90;;;7.30;99.90;;;;;;4898272;29;20224;-76
2024/01/02 02:05:35;;;;;;;9.37;8.80;;;7.40;99.90;;;;;;4898470;29;20240;-77
2024/01/02 02:08:03;;;;;;;9.13;8.63;;;7.40;99.90;;;;;;4898207;29;20212;-76
2024/01/02 02:10:30;;;;;;;9.43;8.90;;;7.40;99.90;;;;;;4898816;29;20759;-77
2024/01/02 02:12:58;;;;;;;9.20;8.70;;;7.40;99.90;;;;;;4899215;29;20370;-77
2024/01/02 02:15:27;;;;;;;9.40;8.90;;;7.40;99.90;;;;;;4898232;29;20208;-77
2024/01/02 02:17:53;;;;;;;9.30;8.80;;;7.50;99.90;;;;;;4895589;29;20216;-77
2024/01/02 02:20:20;;;;;;;9.33;8.80;;;7.50;99.90;;;;;;4897530;29;20296;-76
2024/01/02 02:22:50;;;;;;;9.57;9.07;;;7.50;99.90;;;;;;4898098;29;20272;-77
2024/01/02 02:25:18;;;;;;;9.50;8.90;;;7.50;99.90;;;;;;4891433;29;20212;-76
2024/01/02 02:27:46;;;;;;;9.50;8.97;;;7.50;99.90;;;;;;4897521;29;20215;-77
2024/01/02 02:30:13;;;;;;;9.47;8.90;;;7.40;99.90;;;;;;4899051;29;20603;-77
2024/01/02 02:32:40;;;;;;;9.70;9.17;;;7.40;99.90;;;;;;4898885;29;20253;-77
2024/01/02 02:35:08;;;;;;;9.33;8.83;;;7.30;99.90;;;;;;4897827;29;20208;-77
2024/01/02 02:37:34;;;;;;;9.60;9.00;;;7.30;99.90;;;;;;4898453;29;20208;-78
2024/01/02 02:40:03;;;;;;;9.50;9.00;;;7.30;99.90;;;;;;4895349;29;20224;-77
2024/01/02 02:42:30;;;;;;;9.40;8.90;;;7.40;99.90;;;;;;4897799;29;20651;-77
2024/01/02 02:44:58;;;;;;;9.50;8.97;;;7.40;99.90;;;;;;4898803;29;20193;-77
2024/01/02 02:47:25;;;;;;;9.60;9.00;;;7.40;99.90;;;;;;4897989;29;20258;-77
2024/01/02 02:49:52;;;;;;;9.50;8.90;;;7.40;99.90;;;;;;4897607;29;20223;-77
2024/01/02 02:52:20;;;;;;;9.47;8.87;;;7.40;99.90;;;;;;4896958;29;20719;-77
2024/01/02 02:54:47;;;;;;;9.80;9.20;;;7.30;99.90;;;;;;4898359;29;20228;-76
2024/01/02 02:57:15;;;;;;;9.70;9.10;;;7.30;99.90;;;;;;4897962;29;20687;-77
2024/01/02 02:59:42;;;;;;;9.50;8.90;;;7.20;99.90;;;;;;4897294;29;20331;-76
2024/01/02 03:02:08;;;;;;;10.00;9.40;;;7.20;99.90;;;;;;4896664;29;20225;-77
2024/01/02 03:04:35;;;;;;;9.63;8.97;;;7.30;99.90;;;;;;4897387;29;20712;-76
2024/01/02 03:07:02;;;;;;;9.40;8.80;;;7.30;99.90;;;;;;4897176;29;20691;-77
2024/01/02 03:09:29;;;;;;;9.50;8.80;;;7.20;99.90;;;;;;4897368;29;20200;-77
2024/01/02 03:11:56;;;;;;;9.00;8.50;;;7.20;99.90;;;;;;4897996;29;20259;-77
2024/01/02 03:14:24;;;;;;;9.20;8.70;;;7.20;99.90;;;;;;4898656;29;20216;-76
2024/01/02 03:16:51;;;;;;;9.10;8.60;;;7.30;99.90;;;;;;4897430;29;20212;-77
2024/01/02 03:19:18;;;;;;;9.33;8.80;;;7.40;99.90;;;;;;4898333;29;20253;-77
2024/01/02 03:21:44;;;;;;;9.53;9.03;;;7.40;99.90;;;;;;4897208;29;20261;-76
2024/01/02 03:24:11;;;;;;;9.60;8.90;;;7.40;99.90;;;;;;4897314;29;20228;-77
2024/01/02 03:26:38;;;;;;;9.37;8.87;;;7.50;99.90;;;;;;4898461;29;20392;-76
2024/01/02 03:29:05;;;;;;;9.70;9.20;;;7.50;99.90;;;;;;4898591;29;20603;-77
2024/01/02 03:31:33;;;;;;;9.70;9.20;;;7.60;99.90;;;;;;4896956;29;20201;-77
2024/01/02 03:34:00;;;;;;;9.37;8.87;;;7.60;99.90;;;;;;4897299;29;20239;-76
2024/01/02 03:36:27;;;;;;;10.30;9.80;;;7.60;99.90;;;;;;4897645;29;20291;-77
2024/01/02 03:38:54;;;;;;;10.17;9.57;;;7.70;99.90;;;;;;4897087;29;20643;-77
2024/01/02 03:41:21;;;;;;;9.77;9.27;;;7.70;99.90;;;;;;4896824;29;20208;-77
2024/01/02 03:43:48;;;;;;;10.00;9.50;;;7.70;99.90;;;;;;4896543;29;20201;-77
2024/01/02 03:46:15;;;;;;;10.40;9.90;;;7.70;99.90;;;;;;4896265;29;20350;-76
2024/01/02 03:48:43;;;;;;;10.20;9.40;;;7.70;99.90;;;;;;4898116;29;20679;-77
2024/01/02 03:51:10;;;;;;;9.80;9.30;;;7.70;99.90;;;;;;4903542;29;20722;-78
2024/01/02 03:53:37;;;;;;;9.57;9.07;;;7.70;99.90;;;;;;4897039;29;20223;-77
2024/01/02 03:56:05;;;;;;;9.73;9.23;;;7.70;99.90;;;;;;4898031;29;20205;-77
2024/01/02 03:58:32;;;;;;;9.83;9.33;;;7.70;99.90;;;;;;4897907;29;20232;-77
2024/01/02 04:00:59;;;;;;;10.43;9.77;;;7.70;99.90;;;;;;4905505;29;20243;-77
2024/01/02 04:03:26;;;;;;;9.90;9.40;;;7.60;99.90;;;;;;4894975;29;20280;-76
2024/01/02 04:05:54;;;;;;;9.50;9.00;;;7.60;99.90;;;;;;4883852;29;20211;-77
2024/01/02 04:08:21;;;;;;;9.20;8.70;;;7.60;99.90;;;;;;4893370;29;20590;-77
2024/01/02 04:10:47;;;;;;;8.83;8.43;;;7.50;99.90;;;;;;4899148;29;20688;-77
2024/01/02 04:13:14;;;;;;;9.47;8.97;;;7.50;99.90;;;;;;4897132;29;20718;-76
2024/01/02 04:15:41;;;;;;;9.10;8.60;;;7.50;99.90;;;;;;4906439;29;20229;-77
2024/01/02 04:18:08;;;;;;;9.10;8.60;;;7.50;99.90;;;;;;4892908;29;20201;-77
2024/01/02 04:20:35;;;;;;;9.47;8.80;;;7.50;99.90;;;;;;4892879;29;20588;-77
2024/01/02 04:23:03;;;;;;;9.60;9.10;;;7.50;99.90;;;;;;4895514;29;20220;-77
2024/01/02 04:25:30;;;;;;;9.60;9.10;;;7.50;99.90;;;;;;4889419;29;20213;-77
2024/01/02 04:27:57;;;;;;;9.30;8.80;;;7.50;99.90;;;;;;4890108;29;20228;-78
2024/01/02 04:30:24;;;;;;;10.13;9.63;;;7.40;99.90;;;;;;4888824;29;20664;-77
2024/01/02 04:32:51;;;;;;;9.83;9.23;;;7.40;99.90;;;;;;4888873;29;20224;-77
2024/01/02 04:35:18;;;;;;;9.40;8.90;;;7.40;99.90;;;;;;4884063;29;20248;-77
2024/01/02 04:37:45;;;;;;;9.13;8.63;;;7.40;99.90;;;;;;4896935;29;20684;-78
2024/01/02 04:40:13;;;;;;;9.50;9.00;;;7.30;99.90;;;;;;4891956;29;20692;-77
2024/01/02 04:42:41;;;;;;;9.70;9.20;;;7.30;99.90;;;;;;4896968;29;20655;-76
2024/01/02 04:45:09;;;;;;;9.70;9.20;;;7.30;99.90;;;;;;4897028;29;20631;-77
2024/01/02 04:47:36;;;;;;;9.40;8.90;;;7.30;99.90;;;;;;4896093;29;20211;-77
2024/01/02 04:50:04;;;;;;;9.47;8.97;;;7.30;99.90;;;;;;4896178;29;20209;-78
2024/01/02 04:52:31;;;;;;;9.30;8.80;;;7.20;99.90;;;;;;4883432;29;20610;-76
2024/01/02 04:54:59;;;;;;;9.63;9.10;;;7.20;99.90;;;;;;4896813;29;20229;-78
2024/01/02 04:57:27;;;;;;;9.50;8.90;;;7.20;99.90;;;;;;4899553;29;20691;-77
2024/01/02 04:59:54;;;;;;;9.53;9.03;;;7.10;99.90;;;;;;4890622;29;20216;-81
2024/01/02 05:02:23;;;;;;;9.90;9.40;;;7.10;99.90;;;;;;4900026;29;20216;-81
2024/01/02 05:04:50;;;;;;;10.30;9.70;;;7.10;99.90;;;;;;4910236;29;20232;-81
2024/01/02 05:07:17;;;;;;;9.60;9.10;;;7.10;99.90;;;;;;4899641;29;20204;-82
2024/01/02 05:09:44;;;;;;;9.83;9.33;;;7.00;99.90;;;;;;4902670;29;20207;-81
2024/01/02 05:12:11;;;;;;;10.40;9.80;;;7.00;99.90;;;;;;4900556;29;20267;-82
2024/01/02 05:14:40;;;;;;;9.87;9.20;;;7.00;99.90;;;;;;4904427;29;20579;-82
2024/01/02 05:17:11;;;;;;;9.10;8.60;;;7.00;99.90;;;;;;4902570;29;20239;-80
2024/01/02 05:19:38;;;;;;;9.33;8.83;;;6.90;99.90;;;;;;4899763;29;20268;-81
2024/01/02 05:22:05;;;;;;;9.90;9.40;;;6.90;99.90;;;;;;4900919;29;20288;-82
2024/01/02 05:24:32;;;;;;;9.67;9.17;;;6.90;99.90;;;;;;4898727;29;20232;-80
2024/01/02 05:26:58;;;;;;;9.67;9.17;;;6.90;99.90;;;;;;4899191;29;20212;-78
2024/01/02 05:29:25;;;;;;;10.20;9.60;;;6.90;99.90;;;;;;4899421;29;20204;-82
2024/01/02 05:31:53;;;;;;;9.80;9.30;;;6.90;99.90;;;;;;4899125;29;20248;-82
2024/01/02 05:34:20;;;;;;;10.33;9.80;;;6.90;99.90;;;;;;4898815;29;20244;-81
2024/01/02 05:36:47;;;;;;;10.90;10.30;;;6.80;99.90;;;;;;4899837;29;20253;-77
2024/01/02 05:39:14;;;;;;;10.47;9.70;;;6.80;99.90;;;;;;4897812;29;20208;-77
2024/01/02 05:41:41;;;;;;;9.93;9.33;;;6.80;99.90;;;;;;4899174;29;20231;-77
2024/01/02 05:44:11;;;;;;;10.20;9.50;;;6.90;99.90;;;;;;4899785;29;20204;-81
2024/01/02 05:46:38;;;;;;;9.80;9.20;;;6.90;99.90;;;;;;4900362;29;20687;-77
2024/01/02 05:49:06;;;;;;;9.73;9.23;;;6.90;99.90;;;;;;4898680;29;20654;-77
2024/01/02 05:51:33;;;;;;;10.00;9.40;;;6.90;99.90;;;;;;4898283;29;20299;-78
2024/01/02 05:54:00;;;;;;;9.33;8.83;;;6.90;99.90;;;;;;4900248;29;20620;-77
2024/01/02 05:56:26;;;;;;;9.30;8.80;;;6.90;99.90;;;;;;4898770;29;20260;-78
2024/01/02 05:58:53;;;;;;;9.30;8.80;;;6.90;99.90;;;;;;4900147;29;20243;-78
2024/01/02 06:01:20;;;;;;;9.40;8.90;;;7.00;99.90;;;;;;4895722;29;20272;-78
2024/01/02 06:03:47;;;;;;;9.67;9.17;;;7.00;99.90;;;;;;4894623;29;20201;-77
2024/01/02 06:06:15;;;;;;;9.90;9.30;;;7.00;99.90;;;;;;4895053;29;20254;-77
2024/01/02 06:08:42;;;;;;;9.70;9.20;;;7.00;99.90;;;;;;4899856;29;20268;-77
2024/01/02 06:11:09;;;;;;;10.10;9.60;;;7.10;99.90;;;;;;4894260;29;20223;-77
2024/01/02 06:13:36;;;;;;;10.40;9.90;;;7.10;99.90;;;;;;4896077;29;20802;-78
2024/01/02 06:16:03;;;;;;;9.90;9.40;;;7.10;99.90;;;;;;4899905;29;20209;-77
2024/01/02 06:18:30;;;;;;;9.70;9.20;;;7.10;99.90;;;;;;4899329;29;20204;-78
2024/01/02 06:20:58;;;;;;;9.90;9.30;;;7.10;99.90;;;;;;4899474;29;20256;-78
2024/01/02 06:23:27;;;;;;;9.70;9.20;;;7.20;99.90;;;;;;4897855;29;20276;-77
2024/01/02 06:25:53;;;;;;;10.10;9.60;;;7.30;99.90;;;;;;4898634;29;20641;-78
2024/01/02 06:28:20;;;;;;;10.00;9.50;;;7.30;99.90;;;;;;4898353;29;20264;-77
2024/01/02 06:30:47;;;;;;;10.03;9.50;;;7.40;99.90;;;;;;4899436;29;20196;-77
2024/01/02 06:33:14;;;;;;;10.40;9.90;;;7.40;99.90;;;;;;4897252;29;20734;-77
2024/01/02 06:35:41;;;;;;;10.43;9.90;;;7.40;99.90;;;;;;4891388;29;20315;-77
2024/01/02 06:38:08;;;;;;;10.23;9.73;;;7.50;99.90;;;;;;4896821;29;20220;-77
2024/01/02 06:40:37;;;;;;;10.13;9.63;;;7.50;99.90;;;;;;4898372;29;20288;-79
2024/01/02 06:43:04;;;;;;;10.03;9.53;;;7.60;99.90;;;;;;4898438;29;20757;-78
2024/01/02 06:45:31;;;;;;;10.30;9.70;;;7.60;99.90;;;;;;4896854;29;20232;-78
2024/01/02 06:47:58;;;;;;;10.30;9.70;;;7.60;99.90;;;;;;4898916;29;20239;-78
2024/01/02 06:50:24;;;;;;;10.10;9.60;;;7.70;99.90;;;;;;4897752;29;20204;-76
2024/01/02 06:52:53;;;;;;;10.00;9.50;;;7.70;99.90;;;;;;4898177;29;20251;-77
2024/01/02 06:55:19;;;;;;;10.20;9.70;;;7.80;99.90;;;;;;4898398;29;20216;-76
2024/01/02 06:57:48;;;;;;;10.30;9.70;;;7.80;99.90;;;;;;4899001;29;20240;-80
2024/01/02 07:00:15;;;;;;;10.63;10.03;;;7.90;99.90;;;;;;4897114;29;20204;-81
2024/01/02 07:02:43;;;;;;;10.50;9.90;;;7.90;99.90;;;;;;4898084;29;20220;-78
2024/01/02 07:05:13;;;;;;;10.10;9.60;;;8.00;99.90;;;;;;4899120;29;20189;-76
2024/01/02 07:07:40;;;;;;;8.53;8.03;;;8.00;99.90;;;;;;4897877;29;20526;-79
2024/01/02 07:10:08;;;;;;;7.90;7.50;;;8.00;99.90;;;;;;4894910;29;20676;-78
2024/01/02 07:12:35;;;;;;;7.63;7.23;;;8.00;99.90;;;;;;4898680;29;20288;-78
2024/01/02 07:15:04;;;;;;;7.50;7.00;;;8.00;99.90;;;;;;4899029;29;20216;-78
2024/01/02 07:17:31;;;;;;;7.17;6.77;;;8.00;99.90;;;;;;4899163;29;20204;-77
2024/01/02 07:19:59;;;;;;;9.97;9.40;;;8.10;99.90;;;;;;4897807;29;20260;-78
2024/01/02 07:22:26;;;;;;;9.00;8.50;;;8.10;99.90;;;;;;4891249;29;20240;-81
2024/01/02 07:24:53;;;;;;;10.20;9.70;;;8.10;99.90;;;;;;4901530;29;20664;-78
2024/01/02 07:27:20;;;;;;;9.50;9.00;;;8.20;99.90;;;;;;4898932;29;20264;-76
2024/01/02 07:29:47;;;;;;;10.10;9.60;;;8.20;99.90;;;;;;4893825;29;20208;-78
2024/01/02 07:32:15;;;;;;;9.80;9.30;;;8.20;99.90;;;;;;4898678;29;20276;-78
2024/01/02 07:34:42;;;;;;;9.80;9.00;;;8.20;99.90;;;;;;4898124;29;20216;-78
2024/01/02 07:37:10;;;;;;;2.40;2.30;;;8.20;99.90;;;;;;4897213;29;20212;-81
2024/01/02 07:39:39;;;;;;;3.83;3.63;;;8.30;99.90;;;;;;4896553;29;20602;-79
2024/01/02 07:42:08;;;;;;;4.20;4.00;;;8.30;99.90;;;;;;4898971;29;20276;-77
2024/01/02 07:44:35;;;;;;;5.60;5.30;;;8.30;99.90;;;;;;4898808;29;20633;-78
2024/01/02 07:47:02;;;;;;;7.30;6.90;;;8.30;99.90;;;;;;4896711;29;20212;-77
2024/01/02 07:49:30;;;;;;;10.90;10.30;;;8.30;99.90;;;;;;4897342;29;20192;-77
2024/01/02 07:51:56;;;;;;;10.20;9.70;;;8.30;99.90;;;;;;4898065;29;20228;-77
2024/01/02 07:54:23;;;;;;;9.70;9.20;;;8.30;99.90;;;;;;4896082;29;20223;-77
2024/01/02 07:56:50;;;;;;;9.20;8.70;;;8.40;99.90;;;;;;4897848;29;20268;-77
2024/01/02 07:59:19;;;;;;;9.50;9.00;;;8.40;99.90;;;;;;4892654;29;20208;-77
2024/01/02 08:01:47;;;;;;;9.10;8.50;;;8.40;99.90;;;;;;4893753;29;20311;-77
2024/01/02 08:04:14;;;;;;;10.10;9.60;;;8.40;99.90;;;;;;4896583;29;20248;-77
2024/01/02 08:06:42;;;;;;;10.20;9.70;;;8.40;99.90;;;;;;4897512;29;20197;-77
2024/01/02 08:09:09;;;;;;;9.47;8.97;;;8.40;99.90;;;;;;4897830;29;20260;-77
2024/01/02 08:11:37;;;;;;;9.50;9.00;;;8.40;99.90;;;;;;4895455;29;20209;-83
2024/01/02 08:14:04;;;;;;;8.90;8.40;;;8.40;99.90;;;;;;4897301;29;20207;-78
2024/01/02 08:16:32;;;;;;;9.57;9.03;;;8.40;99.90;;;;;;4896069;29;20603;-78
2024/01/02 08:18:59;;;;;;;9.00;8.50;;;8.40;99.90;;;;;;4896351;29;20241;-79
2024/01/02 08:21:26;;;;;;;9.60;9.10;;;8.40;99.90;;;;;;4893976;29;20201;-78
2024/01/02 08:23:54;;;;;;;10.00;9.40;;;8.40;99.90;;;;;;4897449;29;20197;-78
2024/01/02 08:26:21;;;;;;;7.60;7.20;;;8.40;99.90;;;;;;4898392;29;20193;-78
2024/01/02 08:28:48;;;;;;;10.80;10.20;;;8.50;99.90;;;;;;4897311;29;20197;-77
2024/01/02 08:31:15;;;;;;;6.60;6.20;;;8.40;99.90;;;;;;4898950;29;20204;-78
2024/01/02 08:33:42;;;;;;;7.50;7.10;;;8.50;99.90;;;;;;4898639;29;20236;-77
2024/01/02 08:36:11;;;;;;;7.63;7.23;;;8.40;99.90;;;;;;4906344;29;20216;-77
2024/01/02 08:38:38;;;;;;;10.43;9.83;;;8.50;99.90;;;;;;4897957;29;20219;-77
2024/01/02 08:41:06;;;;;;;8.80;8.30;;;8.50;99.90;;;;;;4900601;29;20642;-77
2024/01/02 08:43:32;;;;;;;5.90;5.60;;;8.50;99.90;;;;;;4901062;29;20229;-77
2024/01/02 08:45:59;;;;;;;5.67;5.37;;;8.50;99.90;;;;;;4902207;29;20201;-77
2024/01/02 08:48:26;;;;;;;4.60;4.40;;;8.50;99.90;;;;;;4899985;29;20681;-77
2024/01/02 08:50:53;;;;;;;5.63;5.33;;;8.60;99.90;;;;;;4901268;29;20649;-77
2024/01/02 08:53:19;;;;;;;9.70;9.10;;;8.60;99.90;;;;;;4900017;29;20224;-78
2024/01/02 08:55:46;;;;;;;6.50;6.20;;;8.60;99.90;;;;;;4901549;29;20216;-77
2024/01/02 08:58:14;;;;;;;6.47;6.17;;;8.60;99.90;;;;;;4899962;29;20672;-78
2024/01/02 09:00:41;;;;;;;7.13;6.73;;;8.60;99.90;;;;;;4900932;29;20692;-77
2024/01/02 09:03:09;;;;;;;8.27;7.83;;;8.70;99.90;;;;;;4900352;29;20711;-77
2024/01/02 09:05:37;;;;;;;9.60;9.10;;;8.70;99.90;;;;;;4900621;29;20200;-77
2024/01/02 09:08:04;;;;;;;7.23;6.83;;;8.70;99.90;;;;;;4900745;29;20225;-77
2024/01/02 09:10:31;;;;;;;7.33;6.93;;;8.70;99.90;;;;;;4900557;29;20200;-76
2024/01/02 09:12:58;;;;;;;5.50;5.20;;;8.80;99.90;;;;;;4900020;29;20228;-77
2024/01/02 09:15:26;;;;;;;5.20;5.00;;;8.80;99.90;;;;;;4899280;29;20225;-77
2024/01/02 09:17:53;;;;;;;10.20;9.70;;;8.90;99.90;;;;;;4901139;29;20209;-77
2024/01/02 09:20:20;;;;;;;10.50;10.00;;;8.90;99.90;;;;;;4900129;29;20253;-77
2024/01/02 09:22:46;;;;;;;10.43;9.83;;;8.90;99.90;;;;;;4900359;29;20232;-77
2024/01/02 09:25:16;;;;;;;10.90;10.30;;;9.00;99.90;;;;;;4899548;29;20252;-77
2024/01/02 09:27:44;;;;;;;11.40;10.80;;;9.00;99.90;;;;;;4900178;29;20287;-77
2024/01/02 09:30:14;;;;;;;10.80;10.27;;;9.10;99.90;;;;;;4898552;29;20201;-78
2024/01/02 09:32:43;;;;;;;11.27;10.67;;;9.10;99.90;;;;;;4899008;29;20224;-77
2024/01/02 09:35:10;;;;;;;7.57;7.17;;;9.20;99.90;;;;;;4899787;29;20230;-77
2024/01/02 09:37:37;;;;;;;7.47;7.07;;;9.20;99.90;;;;;;4899857;29;20200;-77
2024/01/02 09:40:18;;;;;;;5.47;5.23;;;9.20;99.90;;;;;;4898578;29;20196;-77
2024/01/02 09:42:54;;;;;;;2.50;2.40;;;9.30;99.90;;;;;;4900894;29;20227;-77
2024/01/02 09:45:32;;;;;;;2.20;2.10;;;9.40;99.90;;;;;;4901057;29;20205;-78
2024/01/02 09:48:18;;;;;;;2.30;2.20;;;9.40;99.90;;;;;;4900200;29;20200;-78
2024/01/02 09:50:52;;;;;;;2.30;2.20;;;9.50;99.90;;;;;;4899863;29;20581;-77
2024/01/02 09:53:52;;;;;;;2.30;2.20;;;9.50;99.90;;;;;;4900259;29;20245;-77
2024/01/02 09:56:27;;;;;;;2.30;2.20;;;9.50;99.90;;;;;;4894868;29;20268;-77
2024/01/02 09:59:03;;;;;;;2.83;2.73;;;9.60;99.90;;;;;;4898769;29;20208;-77
2024/01/02 10:01:35;;;;;;;2.40;2.30;;;9.60;99.90;;;;;;4896100;29;20200;-77
2024/01/02 10:04:34;;;;;;;2.40;2.30;;;9.60;99.90;;;;;;4900066;29;20233;-77
2024/01/02 10:07:21;;;;;;;2.40;2.30;;;9.60;99.90;;;;;;4892372;29;20244;-77
2024/01/02 10:10:03;;;;;;;2.40;2.30;;;9.60;99.90;;;;;;4898376;29;20205;-80
2024/01/02 10:12:40;;;;;;;5.13;4.83;;;9.60;99.90;;;;;;4895795;29;20240;-79
2024/01/02 10:15:19;;;;;;;4.87;4.67;;;9.70;99.90;;;;;;4907776;29;20216;-77
2024/01/02 10:17:54;;;;;;;9.40;8.90;;;9.70;99.90;;;;;;4899897;29;20622;-77
2024/01/02 10:20:34;;;;;;;9.93;9.43;;;9.80;99.90;;;;;;4897861;29;20723;-77
2024/01/02 10:23:10;;;;;;;9.90;9.40;;;9.80;99.90;;;;;;4898120;29;20224;-77
2024/01/02 10:25:39;;;;;;;9.83;9.33;;;9.90;99.90;;;;;;4899123;29;20208;-77
2024/01/02 10:28:14;;;;;;;10.30;9.80;;;9.90;99.90;;;;;;4891958;29;20206;-77
2024/01/02 10:30:49;;;;;;;10.40;9.80;;;10.00;99.90;;;;;;4899521;29;20443;-76
2024/01/02 10:33:23;;;;;;;10.27;9.77;;;10.00;99.90;;;;;;4901153;29;20332;-77
2024/01/02 10:35:54;;;;;;;10.50;9.90;;;10.00;99.90;;;;;;4899033;29;20230;-77
2024/01/02 10:38:34;;;;;;;10.10;9.60;;;10.10;99.90;;;;;;4893244;29;20231;-80
2024/01/02 10:41:11;;;;;;;10.07;9.47;;;10.10;99.90;;;;;;4898615;29;20205;-80
2024/01/02 10:43:44;;;;;;;3.97;3.77;;;10.20;99.90;;;;;;4898413;29;20313;-80
2024/01/02 10:46:18;;;;;;;8.47;8.07;;;10.20;99.90;;;;;;4900751;29;20198;-79
2024/01/02 10:48:55;;;;;;;8.53;8.10;;;10.30;99.90;;;;;;4900833;29;20206;-80
2024/01/02 10:51:34;;;;;;;6.93;6.60;;;10.40;99.90;;;;;;4905069;29;20202;-80
2024/01/02 10:54:05;;;;;;;2.47;2.37;;;10.40;99.90;;;;;;4895508;29;20229;-79
2024/01/02 10:56:40;;;;;;;10.00;9.50;;;10.50;99.90;;;;;;4892093;29;20231;-79
2024/01/02 10:59:22;;;;;;;9.73;9.23;;;10.50;99.90;;;;;;4896535;29;20674;-79
2024/01/02 11:01:52;;;;;;;9.60;9.10;;;10.40;99.90;;;;;;4894683;29;20241;-76
2024/01/02 11:04:28;;;;;;;9.47;8.97;;;10.50;99.90;;;;;;4897421;29;20205;-76
2024/01/02 11:07:01;;;;;;;9.47;8.97;;;10.50;99.90;;;;;;4898942;29;20637;-77
2024/01/02 11:09:37;;;;;;;9.50;9.00;;;10.50;99.90;;;;;;4898488;29;20203;-77
2024/01/02 11:12:08;;;;;;;10.33;9.83;;;10.50;99.90;;;;;;4896436;29;20245;-77
2024/01/02 11:14:36;;;;;;;9.30;8.80;;;10.50;99.90;;;;;;4895676;29;20214;-76
2024/01/02 11:17:04;;;;;;;9.20;8.70;;;10.60;99.90;;;;;;4898778;29;20271;-77
2024/01/02 11:19:39;;;;;;;9.80;9.30;;;10.60;99.90;;;;;;4898104;29;20210;-77
2024/01/02 11:22:12;;;;;;;9.80;9.30;;;10.70;99.90;;;;;;4897662;29;20222;-77
2024/01/02 11:24:45;;;;;;;9.50;8.90;;;10.70;99.90;;;;;;4899311;29;20244;-77
2024/01/02 11:27:13;;;;;;;9.67;9.17;;;10.70;99.90;;;;;;4897592;29;20229;-77
2024/01/02 11:29:43;;;;;;;10.43;9.83;;;10.70;99.90;;;;;;4899037;29;20230;-77
2024/01/02 11:32:16;;;;;;;9.50;9.00;;;10.70;99.90;;;;;;4897349;29;20264;-77
2024/01/02 11:34:50;;;;;;;9.60;9.10;;;10.90;99.90;;;;;;4896913;29;20215;-78
2024/01/02 11:37:28;;;;;;;9.30;8.70;;;10.90;99.90;;;;;;4891726;29;20621;-77
2024/01/02 11:40:07;;;;;;;9.30;8.80;;;10.90;99.90;;;;;;4897320;29;20222;-76
2024/01/02 11:42:47;;;;;;;9.20;8.70;;;10.90;99.90;;;;;;4897196;29;20337;-77
2024/01/02 11:45:16;;;;;;;9.30;8.80;;;11.00;99.90;;;;;;4907646;29;20241;-76
2024/01/02 11:47:45;;;;;;;9.50;9.00;;;11.00;99.90;;;;;;4898533;29;20590;-77
2024/01/02 11:50:14;;;;;;;9.50;9.00;;;11.10;99.90;;;;;;4897306;29;20282;-77
2024/01/02 11:52:55;;;;;;;9.30;8.80;;;11.00;99.90;;;;;;4896695;29;20611;-77
2024/01/02 11:55:34;;;;;;;9.40;8.90;;;11.00;99.90;;;;;;4897740;29;20208;-77
2024/01/02 11:58:12;;;;;;;9.43;8.93;;;11.10;99.90;;;;;;4898328;29;20278;-77
2024/01/02 12:00:47;;;;;;;9.33;8.83;;;11.00;99.90;;;;;;4897722;29;20225;-78
2024/01/02 12:03:30;;;;;;;9.37;8.87;;;11.10;99.90;;;;;;4895311;29;20234;-78
2024/01/02 12:06:03;;;;;;;9.40;8.90;;;11.00;99.90;;;;;;4899549;29;20201;-78
2024/01/02 12:08:37;;;;;;;9.20;8.70;;;11.10;99.90;;;;;;4896628;29;20212;-78
2024/01/02 12:11:09;;;;;;;9.13;8.63;;;11.10;99.90;;;;;;4899267;29;20219;-77
2024/01/02 12:13:43;;;;;;;9.53;9.03;;;11.10;99.90;;;;;;4899059;29;20232;-77
2024/01/02 12:16:12;;;;;;;9.40;8.90;;;11.10;99.90;;;;;;4908349;29;20219;-77
2024/01/02 12:18:42;;;;;;;9.27;8.77;;;11.10;99.90;;;;;;4898223;29;20211;-77
2024/01/02 12:21:14;;;;;;;9.60;9.10;;;11.10;99.90;;;;;;4901866;29;20208;-77
2024/01/02 12:23:44;;;;;;;9.53;9.03;;;11.00;99.90;;;;;;4899419;29;20316;-77
2024/01/02 12:26:15;;;;;;;9.47;8.97;;;11.00;99.90;;;;;;4900049;29;20196;-77
2024/01/02 12:28:43;;;;;;;9.97;9.37;;;11.00;99.90;;;;;;4899710;29;20206;-77
2024/01/02 12:31:12;;;;;;;9.80;9.30;;;10.90;99.90;;;;;;4900056;29;20274;-77
2024/01/02 12:33:45;;;;;;;9.90;9.40;;;10.90;99.90;;;;;;4898211;29;20263;-77
2024/01/02 12:36:23;;;;;;;9.60;9.10;;;10.90;99.90;;;;;;4893804;29;20717;-77
2024/01/02 12:38:52;;;;;;;9.70;9.20;;;11.00;99.90;;;;;;4899234;29;20214;-76
2024/01/02 12:41:21;;;;;;;9.63;9.13;;;11.00;99.90;;;;;;4897414;29;20207;-77
2024/01/02 12:43:52;;;;;;;9.70;9.20;;;10.90;99.90;;;;;;4892333;29;20307;-77
2024/01/02 12:46:25;;;;;;;9.57;9.03;;;11.00;99.90;;;;;;4887869;29;20567;-77
2024/01/02 12:48:59;;;;;;;9.50;9.00;;;11.00;99.90;;;;;;4888885;29;20215;-77
2024/01/02 12:51:31;;;;;;;9.90;9.40;;;11.00;99.90;;;;;;4897532;29;20203;-77
2024/01/02 12:54:03;;;;;;;9.70;9.20;;;11.10;99.90;;;;;;4899372;29;20208;-77
2024/01/02 12:56:32;;;;;;;10.20;9.60;;;11.10;99.90;;;;;;4901991;29;20215;-77
2024/01/02 12:59:03;;;;;;;10.13;9.63;;;11.10;99.90;;;;;;4900182;29;20655;-77
2024/01/02 13:01:31;;;;;;;10.50;9.90;;;11.10;99.90;;;;;;4901632;29;20207;-77